Time;durP1;ratioP1;P1;durP2;ratioP2;P2;SDS_P1;SDS_P2;PMS_P1;PMS_P2;Temp;Humidity;BMP_temperature;BMP_pressure;BME280_temperature;BME280_humidity;BME280_pressure;Samples;Min_cycle;Max_cycle;Signal;HPM_P1;HPM_P2
2022/09/05 00:00:19;;;;;;;5.68;3.03;;;19.60;90.00;;;;;;4986403;28;20053;-54
2022/09/05 00:02:49;;;;;;;7.32;3.03;;;19.50;90.00;;;;;;5005838;28;20042;-55
2022/09/05 00:05:27;;;;;;;5.55;3.25;;;19.50;90.10;;;;;;4989583;28;20497;-55
2022/09/05 00:08:26;;;;;;;5.05;3.17;;;19.50;90.30;;;;;;4984310;28;20096;-54
2022/09/05 00:11:16;;;;;;;6.07;3.67;;;19.40;90.40;;;;;;4976540;28;20064;-55
2022/09/05 00:13:50;;;;;;;6.50;3.42;;;19.30;90.40;;;;;;4967587;28;20117;-56
2022/09/05 00:16:16;;;;;;;;;;;19.30;90.50;;;;;;5005687;28;20049;-55
2022/09/05 00:19:20;;;;;;;8.45;3.70;;;19.30;90.70;;;;;;5004744;28;20602;-56
2022/09/05 00:21:46;;;;;;;4.97;3.35;;;19.20;90.60;;;;;;4975363;28;20057;-58
2022/09/05 00:24:33;;;;;;;5.13;3.55;;;19.20;90.60;;;;;;4972397;28;20050;-57
2022/09/05 00:27:21;;;;;;;4.57;3.55;;;19.20;90.50;;;;;;4988724;28;20389;-56
2022/09/05 00:30:07;;;;;;;8.07;3.65;;;19.20;90.60;;;;;;4971583;28;20057;-56
2022/09/05 00:33:00;;;;;;;5.10;3.33;;;19.10;90.70;;;;;;5001925;28;20058;-54
2022/09/05 00:35:45;;;;;;;4.15;3.20;;;19.10;90.70;;;;;;4974522;28;20109;-56
2022/09/05 00:38:24;;;;;;;4.10;3.60;;;19.10;90.80;;;;;;4972749;28;20108;-55
2022/09/05 00:41:07;;;;;;;5.43;4.03;;;19.10;90.80;;;;;;4975706;28;20101;-61
2022/09/05 00:43:35;;;;;;;6.75;3.95;;;19.10;90.80;;;;;;4971436;28;20280;-58
2022/09/05 00:46:09;;;;;;;5.10;3.90;;;19.10;90.80;;;;;;4972363;28;20070;-61
2022/09/05 00:48:53;;;;;;;5.20;3.88;;;19.10;90.80;;;;;;4975193;28;20038;-56
2022/09/05 00:51:21;;;;;;;5.60;4.05;;;19.10;90.80;;;;;;4991772;28;20288;-58
2022/09/05 00:54:09;;;;;;;4.38;3.47;;;19.00;91.10;;;;;;4981693;28;20044;-61
2022/09/05 00:56:44;;;;;;;5.28;3.83;;;19.00;90.90;;;;;;4983459;28;20083;-57
2022/09/05 00:59:47;;;;;;;7.35;3.63;;;19.00;91.00;;;;;;4994540;28;20483;-57
2022/09/05 01:02:27;;;;;;;8.05;4.18;;;19.00;91.00;;;;;;4992105;28;20081;-60
2022/09/05 01:05:24;;;;;;;6.20;3.35;;;18.90;91.10;;;;;;4977594;28;20053;-61
2022/09/05 01:08:05;;;;;;;5.93;3.83;;;18.90;91.20;;;;;;4975347;28;20137;-58
2022/09/05 01:10:36;;;;;;;6.07;3.83;;;18.90;91.50;;;;;;4976624;28;20659;-54
2022/09/05 01:13:13;;;;;;;5.18;3.90;;;18.90;91.40;;;;;;4971438;28;20042;-56
2022/09/05 01:16:01;;;;;;;7.00;4.30;;;18.80;91.50;;;;;;4971518;28;20662;-56
2022/09/05 01:18:38;;;;;;;7.57;4.18;;;18.80;91.60;;;;;;4991458;28;20283;-57
2022/09/05 01:21:18;;;;;;;6.38;4.15;;;18.70;91.70;;;;;;5005803;28;20046;-58
2022/09/05 01:24:22;;;;;;;5.97;4.07;;;18.70;91.70;;;;;;4976107;28;20038;-60
2022/09/05 01:27:26;;;;;;;8.75;3.63;;;18.60;91.80;;;;;;4962449;28;20061;-58
2022/09/05 01:30:16;;;;;;;5.68;4.07;;;18.60;91.90;;;;;;4972790;28;20120;-58
2022/09/05 01:32:53;;;;;;;6.20;4.38;;;18.60;91.90;;;;;;5008188;28;20038;-58
2022/09/05 01:35:44;;;;;;;8.85;5.28;;;18.60;91.90;;;;;;4991577;28;20129;-58
2022/09/05 01:38:32;;;;;;;7.05;4.25;;;18.50;92.00;;;;;;4983269;28;20561;-58
2022/09/05 01:41:21;;;;;;;3.95;3.55;;;18.50;92.10;;;;;;4984113;28;20065;-59
2022/09/05 01:44:15;;;;;;;6.50;4.45;;;18.50;92.10;;;;;;4992233;28;20038;-58
2022/09/05 01:47:16;;;;;;;4.40;4.00;;;18.40;92.20;;;;;;4980475;28;20052;-58
2022/09/05 01:50:19;;;;;;;8.10;4.50;;;18.40;92.20;;;;;;5002503;28;20561;-58
2022/09/05 01:53:01;;;;;;;7.80;4.07;;;18.40;92.20;;;;;;4989997;28;20072;-58
2022/09/05 01:55:56;;;;;;;4.47;3.85;;;18.40;92.40;;;;;;5009765;28;20034;-58
2022/09/05 01:58:46;;;;;;;6.85;5.15;;;18.30;92.40;;;;;;4992426;28;20104;-58
2022/09/05 02:01:34;;;;;;;7.15;4.25;;;18.30;92.50;;;;;;5007450;28;20128;-57
2022/09/05 02:04:18;;;;;;;9.73;5.10;;;18.30;92.60;;;;;;4974301;28;20449;-58
2022/09/05 02:07:12;;;;;;;6.82;5.18;;;18.20;92.60;;;;;;4987862;28;20072;-57
2022/09/05 02:10:16;;;;;;;6.50;4.60;;;18.20;92.70;;;;;;5006566;28;20056;-59
2022/09/05 02:12:44;;;;;;;3.65;3.33;;;18.20;92.80;;;;;;4991483;28;20129;-58
2022/09/05 02:15:20;;;;;;;6.28;4.93;;;18.20;92.80;;;;;;4987061;28;20038;-58
2022/09/05 02:18:21;;;;;;;5.55;4.97;;;18.20;92.90;;;;;;4991646;28;20059;-58
2022/09/05 02:20:59;;;;;;;7.47;4.65;;;18.10;92.90;;;;;;4984831;28;20514;-59
2022/09/05 02:23:39;;;;;;;6.57;5.13;;;18.10;92.90;;;;;;4989843;28;20045;-58
2022/09/05 02:26:24;;;;;;;8.63;5.45;;;18.20;92.90;;;;;;4989241;28;20108;-58
2022/09/05 02:29:13;;;;;;;5.57;4.75;;;18.10;92.90;;;;;;4991962;28;20050;-58
2022/09/05 02:31:47;;;;;;;7.00;4.93;;;18.10;93.00;;;;;;4975283;28;20140;-59
2022/09/05 02:34:49;;;;;;;5.97;5.25;;;18.10;93.00;;;;;;4991465;28;20470;-58
2022/09/05 02:37:26;;;;;;;7.53;6.03;;;18.10;93.00;;;;;;4989706;28;20369;-58
2022/09/05 02:40:00;;;;;;;7.93;6.22;;;18.10;93.10;;;;;;4978009;28;20466;-58
2022/09/05 02:42:36;;;;;;;7.05;5.53;;;18.00;93.20;;;;;;4993696;23;20152;-60
2022/09/05 02:45:05;;;;;;;9.02;5.55;;;18.00;93.30;;;;;;5004232;28;20049;-60
2022/09/05 02:47:36;;;;;;;6.30;4.50;;;17.90;93.30;;;;;;5003407;28;20037;-59
2022/09/05 02:50:33;;;;;;;7.80;6.28;;;17.90;93.30;;;;;;5005032;28;20049;-61
2022/09/05 02:52:59;;;;;;;8.57;6.30;;;17.90;93.30;;;;;;5004448;28;20049;-59
2022/09/05 02:56:01;;;;;;;6.72;5.18;;;17.60;93.30;;;;;;4985012;28;20055;-61
2022/09/05 02:58:32;;;;;;;6.40;5.13;;;17.80;93.40;;;;;;5003587;28;20046;-59
2022/09/05 03:01:30;;;;;;;6.82;5.70;;;17.80;93.50;;;;;;5001968;28;20124;-61
2022/09/05 03:04:13;;;;;;;6.78;4.90;;;17.80;93.60;;;;;;4994408;28;20661;-61
2022/09/05 03:06:53;;;;;;;9.23;6.40;;;17.70;93.60;;;;;;5011467;28;20048;-61
2022/09/05 03:09:31;;;;;;;8.43;5.20;;;17.70;93.70;;;;;;5012893;28;20191;-62
2022/09/05 03:12:16;;;;;;;10.52;6.38;;;17.60;93.80;;;;;;5009782;28;20041;-59
2022/09/05 03:14:45;;;;;;;7.35;6.38;;;17.60;93.80;;;;;;5011161;28;20083;-59
2022/09/05 03:17:29;;;;;;;9.23;6.30;;;17.50;93.90;;;;;;5007968;28;20034;-59
2022/09/05 03:19:58;;;;;;;10.65;7.38;;;17.50;94.00;;;;;;5002281;28;20042;-60
2022/09/05 03:23:00;;;;;;;8.38;5.78;;;17.50;94.10;;;;;;5004390;28;20069;-59
2022/09/05 03:25:38;;;;;;;7.57;6.88;;;17.50;94.20;;;;;;4998714;28;20053;-59
2022/09/05 03:28:10;;;;;;;6.88;5.72;;;17.40;94.30;;;;;;5005363;28;20038;-59
2022/09/05 03:30:42;;;;;;;7.15;6.28;;;17.30;94.40;;;;;;5008240;28;20128;-57
2022/09/05 03:33:45;;;;;;;8.02;6.57;;;17.30;94.40;;;;;;5024670;28;20045;-58
2022/09/05 03:36:36;;;;;;;7.20;5.50;;;17.30;94.40;;;;;;5003155;28;20045;-60
2022/09/05 03:39:21;;;;;;;7.97;6.25;;;17.30;94.50;;;;;;5013113;28;20187;-58
2022/09/05 03:42:05;;;;;;;8.60;7.28;;;17.30;94.40;;;;;;5010613;28;20041;-59
2022/09/05 03:45:05;;;;;;;8.50;6.78;;;17.20;94.50;;;;;;5002215;28;20049;-58
2022/09/05 03:47:54;;;;;;;5.95;5.35;;;17.20;94.60;;;;;;5001213;28;20049;-59
2022/09/05 03:50:36;;;;;;;11.23;6.72;;;17.10;94.70;;;;;;5018105;28;20045;-60
2022/09/05 03:53:04;;;;;;;10.20;7.03;;;17.10;94.80;;;;;;5013529;28;20025;-59
2022/09/05 03:56:04;;;;;;;7.07;6.38;;;17.10;94.80;;;;;;5018023;28;20034;-58
2022/09/05 03:59:10;;;;;;;8.68;7.03;;;17.10;94.90;;;;;;5019124;28;20507;-58
2022/09/05 04:01:49;;;;;;;8.95;6.13;;;17.00;94.90;;;;;;4976040;28;20555;-59
2022/09/05 04:04:35;;;;;;;7.30;6.60;;;17.00;95.00;;;;;;5008878;28;20053;-59
2022/09/05 04:07:25;;;;;;;8.35;6.78;;;16.90;95.10;;;;;;5017479;28;20052;-59
2022/09/05 04:10:06;;;;;;;7.82;7.10;;;16.90;95.20;;;;;;5015893;28;20450;-59
2022/09/05 04:12:34;;;;;;;8.75;7.57;;;16.90;95.20;;;;;;5024774;28;20498;-59
2022/09/05 04:15:25;;;;;;;7.47;6.70;;;16.80;95.20;;;;;;5023335;28;20121;-58
2022/09/05 04:18:17;;;;;;;9.95;7.78;;;16.90;95.30;;;;;;5008984;28;20034;-59
2022/09/05 04:20:55;;;;;;;8.35;7.35;;;16.90;95.30;;;;;;5013713;28;20065;-58
2022/09/05 04:23:48;;;;;;;9.98;6.88;;;16.90;95.30;;;;;;5008774;28;20034;-59
2022/09/05 04:26:24;;;;;;;10.68;7.38;;;16.90;95.30;;;;;;5005989;28;20049;-59
2022/09/05 04:29:08;;;;;;;7.35;6.50;;;16.80;95.30;;;;;;5005033;28;20038;-59
2022/09/05 04:31:37;;;;;;;9.65;7.13;;;16.80;95.40;;;;;;5008332;28;20087;-59
2022/09/05 04:34:14;;;;;;;9.25;8.07;;;16.80;95.50;;;;;;5011465;28;20255;-58
2022/09/05 04:36:42;;;;;;;8.27;6.78;;;16.80;95.50;;;;;;5009966;28;20080;-59
2022/09/05 04:39:17;;;;;;;9.23;7.68;;;16.70;95.60;;;;;;5014724;28;20069;-59
2022/09/05 04:42:09;;;;;;;10.05;7.82;;;16.70;95.70;;;;;;5008919;28;20034;-59
2022/09/05 04:44:39;;;;;;;7.80;6.90;;;16.70;95.70;;;;;;4998585;28;20159;-60
2022/09/05 04:47:14;;;;;;;8.70;7.68;;;16.70;95.80;;;;;;5011632;28;20045;-60
2022/09/05 04:49:56;;;;;;;9.38;8.48;;;16.70;95.80;;;;;;5007330;28;20403;-59
2022/09/05 04:52:53;;;;;;;9.57;6.90;;;16.70;95.90;;;;;;5007273;28;20049;-59
2022/09/05 04:55:24;;;;;;;11.13;7.38;;;16.60;96.00;;;;;;5003850;28;20041;-59
2022/09/05 04:57:56;;;;;;;9.95;8.75;;;16.60;96.00;;;;;;5004165;28;20042;-59
2022/09/05 05:00:24;;;;;;;7.18;6.35;;;16.60;96.10;;;;;;4989340;28;20033;-59
2022/09/05 05:03:00;;;;;;;13.13;9.18;;;16.60;96.20;;;;;;5003418;28;20046;-60
2022/09/05 05:05:46;;;;;;;8.57;7.57;;;16.60;96.30;;;;;;5017687;28;20049;-60
2022/09/05 05:08:29;;;;;;;8.68;7.70;;;16.60;96.20;;;;;;5018043;28;20523;-59
2022/09/05 05:11:00;;;;;;;8.10;7.28;;;16.60;96.30;;;;;;5010417;28;20091;-59
2022/09/05 05:13:34;;;;;;;8.02;6.55;;;16.70;96.30;;;;;;5003410;28;20045;-59
2022/09/05 05:16:18;;;;;;;10.48;8.40;;;16.70;96.30;;;;;;5016001;28;20151;-59
2022/09/05 05:18:53;;;;;;;9.65;7.88;;;16.60;96.30;;;;;;5019849;28;20132;-59
2022/09/05 05:21:21;;;;;;;9.25;7.68;;;16.60;96.40;;;;;;5019634;28;20462;-59
2022/09/05 05:24:09;;;;;;;9.57;8.57;;;16.60;96.50;;;;;;5011046;28;20493;-60
2022/09/05 05:26:57;;;;;;;9.07;6.68;;;16.60;96.60;;;;;;5005824;28;20125;-59
2022/09/05 05:29:29;;;;;;;9.60;8.68;;;16.60;96.70;;;;;;4992710;28;20130;-62
2022/09/05 05:32:01;;;;;;;8.75;7.90;;;16.50;96.80;;;;;;4996081;28;20582;-59
2022/09/05 05:34:34;;;;;;;8.25;7.38;;;16.50;96.90;;;;;;5002868;28;20520;-59
2022/09/05 05:37:09;;;;;;;15.88;9.10;;;16.50;97.00;;;;;;5005144;28;20038;-60
2022/09/05 05:39:42;;;;;;;8.57;7.60;;;16.50;97.20;;;;;;5007450;28;20052;-59
2022/09/05 05:42:20;;;;;;;8.60;7.20;;;16.50;97.30;;;;;;5006656;28;20068;-60
2022/09/05 05:44:50;;;;;;;9.07;8.13;;;16.50;97.40;;;;;;5001841;28;20054;-60
2022/09/05 05:47:35;;;;;;;7.85;6.35;;;16.60;97.60;;;;;;5007292;28;20041;-60
2022/09/05 05:50:04;;;;;;;9.05;7.88;;;16.60;97.60;;;;;;5006175;28;20041;-59
2022/09/05 05:52:38;;;;;;;10.75;9.30;;;16.70;97.80;;;;;;5020805;28;20128;-58
2022/09/05 05:55:35;;;;;;;11.18;8.43;;;16.80;97.80;;;;;;5023282;28;20127;-59
2022/09/05 05:58:07;;;;;;;12.88;8.75;;;16.80;97.90;;;;;;5022142;28;20459;-60
2022/09/05 06:00:42;;;;;;;9.75;8.85;;;16.90;98.00;;;;;;5018507;28;20104;-60
2022/09/05 06:03:49;;;;;;;13.02;8.30;;;16.90;98.10;;;;;;5021825;28;20053;-59
2022/09/05 06:06:37;;;;;;;10.70;9.52;;;17.00;98.10;;;;;;4991066;28;20082;-59
2022/09/05 06:09:27;;;;;;;9.40;8.50;;;17.00;98.20;;;;;;5023647;28;20484;-60
2022/09/05 06:12:22;;;;;;;10.35;9.35;;;17.10;98.50;;;;;;5017921;28;20034;-59
2022/09/05 06:14:48;;;;;;;10.57;9.55;;;17.20;98.20;;;;;;5024027;28;20088;-59
2022/09/05 06:17:45;;;;;;;11.23;9.75;;;17.20;98.20;;;;;;5011031;28;20045;-57
2022/09/05 06:20:43;;;;;;;10.85;9.75;;;17.30;98.20;;;;;;5018836;28;20046;-59
2022/09/05 06:23:37;;;;;;;11.32;10.07;;;17.40;98.20;;;;;;5035836;28;20041;-58
2022/09/05 06:26:33;;;;;;;12.07;10.18;;;17.50;98.20;;;;;;5004884;28;20396;-59
2022/09/05 06:29:25;;;;;;;10.40;9.43;;;17.60;98.20;;;;;;5022124;28;20499;-58
2022/09/05 06:32:25;;;;;;;12.25;9.18;;;17.70;98.10;;;;;;4962603;28;20443;-59
2022/09/05 06:35:25;;;;;;;10.80;8.77;;;17.80;98.00;;;;;;5005787;28;20053;-60
2022/09/05 06:38:06;;;;;;;11.35;9.68;;;17.90;98.00;;;;;;4999708;28;20132;-60
2022/09/05 06:40:37;;;;;;;10.50;9.10;;;17.90;98.00;;;;;;4988509;28;20044;-60
2022/09/05 06:43:30;;;;;;;12.45;9.98;;;18.00;98.00;;;;;;5001276;28;20046;-60
2022/09/05 06:46:34;;;;;;;10.20;9.20;;;18.00;98.30;;;;;;5013557;28;20124;-61
2022/09/05 06:49:03;;;;;;;11.65;9.35;;;18.10;98.40;;;;;;5015761;28;20392;-60
2022/09/05 06:51:40;;;;;;;11.35;10.25;;;18.10;98.50;;;;;;5011068;28;20052;-60
2022/09/05 06:54:30;;;;;;;12.00;10.50;;;18.30;98.30;;;;;;5006040;28;20086;-61
2022/09/05 06:57:30;;;;;;;11.55;9.73;;;18.40;98.20;;;;;;5011494;28;20448;-59
2022/09/05 07:00:19;;;;;;;11.48;10.27;;;18.50;98.10;;;;;;5003361;28;20041;-60
2022/09/05 07:03:24;;;;;;;10.80;9.88;;;18.60;97.70;;;;;;4988119;28;20416;-60
2022/09/05 07:06:27;;;;;;;11.00;9.90;;;18.60;97.80;;;;;;4998732;28;20516;-60
2022/09/05 07:09:31;;;;;;;10.55;9.63;;;18.80;97.90;;;;;;5002657;28;20404;-60
2022/09/05 07:12:18;;;;;;;11.85;9.85;;;18.90;97.90;;;;;;5016512;28;20072;-60
2022/09/05 07:15:07;;;;;;;13.40;10.23;;;19.10;97.80;;;;;;5000807;28;20045;-61
2022/09/05 07:17:38;;;;;;;11.13;9.63;;;19.10;97.50;;;;;;5011714;28;20049;-60
2022/09/05 07:20:23;;;;;;;10.20;9.23;;;19.30;97.40;;;;;;5012676;28;20052;-60
2022/09/05 07:23:11;;;;;;;10.10;8.88;;;19.40;97.40;;;;;;5012606;28;20041;-60
2022/09/05 07:25:43;;;;;;;10.85;9.43;;;19.60;97.20;;;;;;5012134;28;20065;-60
2022/09/05 07:28:14;;;;;;;10.23;8.95;;;19.70;97.10;;;;;;5008703;28;20050;-60
2022/09/05 07:30:46;;;;;;;10.10;9.00;;;19.90;97.00;;;;;;5013483;28;20402;-59
2022/09/05 07:33:18;;;;;;;11.20;9.65;;;20.00;96.70;;;;;;5002287;28;20042;-60
2022/09/05 07:35:44;;;;;;;9.60;8.70;;;20.10;96.50;;;;;;5006414;28;20434;-60
2022/09/05 07:38:21;;;;;;;12.90;10.00;;;20.10;96.20;;;;;;5009335;28;20132;-60
2022/09/05 07:41:18;;;;;;;11.43;8.55;;;20.20;96.30;;;;;;5011437;28;20048;-61
2022/09/05 07:43:47;;;;;;;9.52;8.30;;;20.40;96.40;;;;;;4996501;28;20046;-60
2022/09/05 07:46:16;;;;;;;11.60;9.15;;;20.50;96.30;;;;;;5005692;28;20049;-61
2022/09/05 07:48:50;;;;;;;11.05;9.63;;;20.70;96.20;;;;;;5013146;28;20105;-61
2022/09/05 07:54:26;;;;;;;9.90;8.13;;;20.90;95.80;;;;;;5020117;28;20504;-59
2022/09/05 07:56:58;;;;;;;10.13;8.88;;;20.90;95.70;;;;;;5028797;28;20060;-59
2022/09/05 07:59:27;;;;;;;8.60;7.80;;;20.90;95.30;;;;;;5024340;28;20061;-60
2022/09/05 08:01:55;;;;;;;13.60;9.95;;;20.90;95.40;;;;;;5007074;28;20327;-60
2022/09/05 08:04:26;;;;;;;9.70;8.65;;;21.00;95.50;;;;;;5026414;28;20045;-60
2022/09/05 08:06:55;;;;;;;10.43;8.50;;;21.10;95.60;;;;;;5027583;28;20432;-60
2022/09/05 08:09:45;;;;;;;9.43;8.52;;;21.20;95.30;;;;;;5018209;28;20438;-60
2022/09/05 08:12:17;;;;;;;10.32;9.18;;;21.30;95.10;;;;;;5026288;28;20041;-59
2022/09/05 08:15:02;;;;;;;9.00;8.10;;;21.40;95.20;;;;;;5021654;28;20622;-60
2022/09/05 08:17:28;;;;;;;10.40;9.10;;;21.50;95.20;;;;;;5026890;28;20496;-60
2022/09/05 08:20:16;;;;;;;8.95;8.15;;;21.60;94.90;;;;;;5025130;28;20052;-60
2022/09/05 08:23:23;;;;;;;8.93;8.02;;;21.70;94.90;;;;;;5022068;28;20064;-61
2022/09/05 08:25:56;;;;;;;10.60;8.82;;;21.80;95.00;;;;;;5012410;28;20167;-60
2022/09/05 08:28:44;;;;;;;13.15;9.35;;;21.80;94.80;;;;;;5026041;28;20130;-60
2022/09/05 08:31:15;;;;;;;10.85;8.30;;;22.00;94.80;;;;;;5009487;28;20049;-59
2022/09/05 08:33:42;;;;;;;10.27;7.75;;;22.20;94.80;;;;;;5019703;28;20025;-60
2022/09/05 08:36:33;;;;;;;11.07;8.32;;;22.30;94.70;;;;;;5021032;28;20044;-60
2022/09/05 08:39:01;;;;;;;10.43;9.05;;;22.50;94.40;;;;;;5022390;28;20057;-58
2022/09/05 08:44:39;;;;;;;11.63;8.35;;;22.80;93.90;;;;;;5022789;28;20058;-59
2022/09/05 08:47:33;;;;;;;10.05;9.02;;;23.00;93.60;;;;;;5000117;28;20046;-61
2022/09/05 08:50:44;;;;;;;11.73;8.18;;;23.10;93.60;;;;;;5002287;28;20056;-58
2022/09/05 08:53:12;;;;;;;9.25;7.88;;;23.30;93.20;;;;;;4987206;28;20077;-59
2022/09/05 08:56:10;;;;;;;9.77;8.40;;;23.40;93.30;;;;;;4989532;28;20044;-59
2022/09/05 08:58:41;;;;;;;9.52;7.55;;;23.60;93.10;;;;;;5001372;28;20103;-59
2022/09/05 09:01:26;;;;;;;7.88;7.18;;;23.70;93.20;;;;;;4982510;28;20069;-55
2022/09/05 09:04:22;;;;;;;10.52;9.02;;;23.80;93.20;;;;;;5008402;28;20101;-60
2022/09/05 09:07:09;;;;;;;10.25;9.15;;;24.00;92.90;;;;;;5008884;28;20047;-58
2022/09/05 09:09:35;;;;;;;8.77;7.90;;;24.10;92.80;;;;;;5001382;28;20377;-57
2022/09/05 09:13:11;;;;;;;10.38;7.40;;;24.30;92.70;;;;;;4984639;28;20050;-58
2022/09/05 09:16:03;;;;;;;8.15;7.00;;;24.50;92.50;;;;;;4919439;28;20047;-56
2022/09/05 09:19:04;;;;;;;11.43;8.45;;;24.60;92.40;;;;;;4945526;28;20109;-56
2022/09/05 09:21:41;;;;;;;12.07;7.07;;;24.80;91.90;;;;;;4986114;28;20140;-58
2022/09/05 09:24:30;;;;;;;9.05;8.15;;;24.90;91.50;;;;;;5001154;28;20099;-61
2022/09/05 09:27:00;;;;;;;10.10;6.93;;;24.90;91.10;;;;;;4999761;28;20523;-57
2022/09/05 09:29:27;;;;;;;11.45;8.65;;;25.00;91.80;;;;;;4988360;28;20087;-61
2022/09/05 09:32:20;;;;;;;8.35;6.40;;;25.10;91.40;;;;;;5002408;28;20477;-57
2022/09/05 09:35:30;;;;;;;8.43;7.30;;;25.30;91.50;;;;;;4996098;28;20505;-58
2022/09/05 09:38:18;;;;;;;10.45;6.05;;;25.40;91.30;;;;;;4994296;28;20132;-57
2022/09/05 09:40:59;;;;;;;8.25;6.30;;;25.50;91.30;;;;;;4971261;28;20127;-58
2022/09/05 09:43:34;;;;;;;7.28;6.57;;;25.60;91.30;;;;;;4985467;28;20049;-62
2022/09/05 09:46:29;;;;;;;6.32;4.75;;;25.70;91.20;;;;;;5006550;28;20045;-59
2022/09/05 09:49:19;;;;;;;6.35;5.50;;;25.90;91.30;;;;;;5002804;28;20046;-64
2022/09/05 09:51:45;;;;;;;6.63;5.97;;;26.00;90.60;;;;;;5005541;28;20519;-60
2022/09/05 09:54:35;;;;;;;5.50;4.70;;;26.00;90.40;;;;;;5010654;28;20060;-56
2022/09/05 09:57:19;;;;;;;8.73;5.40;;;26.10;90.50;;;;;;5007176;28;20040;-61
2022/09/05 10:00:01;;;;;;;9.63;5.43;;;26.20;90.10;;;;;;4992005;28;20102;-58
2022/09/05 10:02:51;;;;;;;6.35;5.43;;;26.30;90.30;;;;;;4995942;28;20120;-62
2022/09/05 10:05:36;;;;;;;11.25;4.97;;;26.40;89.90;;;;;;5011548;28;20167;-62
2022/09/05 10:08:11;;;;;;;6.10;4.38;;;26.60;89.10;;;;;;4997305;28;20445;-63
2022/09/05 10:10:49;;;;;;;7.70;4.88;;;26.70;88.70;;;;;;5001395;28;20052;-57
2022/09/05 10:13:25;;;;;;;7.93;4.25;;;26.90;89.50;;;;;;4994317;28;20059;-57
2022/09/05 10:16:06;;;;;;;9.10;4.20;;;27.10;89.50;;;;;;5006591;28;20045;-58
2022/09/05 10:18:53;;;;;;;7.93;4.80;;;27.30;88.70;;;;;;4998728;28;20049;-58
2022/09/05 10:21:37;;;;;;;6.35;4.63;;;27.40;86.40;;;;;;5001741;28;20041;-63
2022/09/05 10:24:31;;;;;;;8.73;4.95;;;27.50;85.00;;;;;;4993920;28;20526;-58
2022/09/05 10:27:28;;;;;;;5.18;3.78;;;27.60;85.90;;;;;;4993810;28;20172;-60
2022/09/05 10:29:53;;;;;;;6.30;3.67;;;27.70;85.60;;;;;;4996737;28;20049;-60
2022/09/05 10:32:28;;;;;;;6.68;4.15;;;27.80;85.40;;;;;;4991111;28;20571;-61
2022/09/05 10:35:23;;;;;;;5.35;3.95;;;27.90;82.90;;;;;;5004958;28;20072;-59
2022/09/05 10:37:53;;;;;;;6.70;3.30;;;27.90;83.40;;;;;;4981868;28;20045;-59
2022/09/05 10:40:24;;;;;;;6.22;3.53;;;27.90;84.60;;;;;;5007125;28;20103;-59
2022/09/05 10:42:51;;;;;;;6.30;3.60;;;28.20;84.40;;;;;;5010061;28;20037;-63
2022/09/05 10:45:41;;;;;;;7.07;3.42;;;28.40;83.30;;;;;;5000490;28;20045;-62
2022/09/05 10:48:22;;;;;;;3.78;2.97;;;28.40;81.70;;;;;;5016220;28;20688;-58
2022/09/05 10:51:03;;;;;;;4.50;3.10;;;28.40;81.40;;;;;;5018866;28;20049;-57
2022/09/05 10:53:40;;;;;;;7.38;2.90;;;28.50;82.00;;;;;;5008652;28;20045;-61
2022/09/05 10:56:18;;;;;;;4.50;2.65;;;28.60;80.10;;;;;;4982996;28;20049;-59
2022/09/05 10:59:06;;;;;;;4.50;2.95;;;28.60;79.70;;;;;;5001843;28;20041;-59
2022/09/05 11:01:32;;;;;;;6.32;2.80;;;28.70;78.70;;;;;;5007193;28;20296;-59
2022/09/05 11:04:28;;;;;;;4.53;3.00;;;28.70;78.60;;;;;;5005915;28;20046;-61
2022/09/05 11:07:16;;;;;;;4.85;2.85;;;28.90;78.10;;;;;;5001441;28;20452;-59
2022/09/05 11:10:16;;;;;;;4.90;3.00;;;29.00;78.00;;;;;;5010892;28;20053;-60
2022/09/05 11:12:58;;;;;;;4.80;2.90;;;29.00;79.30;;;;;;4990731;28;20053;-60
2022/09/05 11:15:49;;;;;;;2.90;2.60;;;29.10;77.00;;;;;;5005599;28;20045;-61
2022/09/05 11:18:28;;;;;;;3.65;2.83;;;29.10;76.00;;;;;;5003070;28;20506;-60
2022/09/05 11:21:07;;;;;;;4.07;2.22;;;29.20;75.40;;;;;;4997789;28;20045;-58
2022/09/05 11:23:38;;;;;;;3.75;2.50;;;29.30;76.50;;;;;;5000837;28;20057;-62
2022/09/05 11:26:23;;;;;;;2.75;2.33;;;29.40;76.40;;;;;;5011237;28;20052;-61
2022/09/05 11:29:08;;;;;;;3.80;2.60;;;29.40;76.40;;;;;;5001492;28;20315;-61
2022/09/05 11:31:54;;;;;;;4.35;2.67;;;29.60;76.30;;;;;;5015711;28;20111;-61
2022/09/05 11:34:34;;;;;;;4.13;2.60;;;29.60;76.10;;;;;;5003387;28;20045;-61
2022/09/05 11:37:01;;;;;;;4.18;2.63;;;29.70;75.60;;;;;;5016820;28;20112;-60
2022/09/05 11:39:42;;;;;;;3.70;2.53;;;29.50;75.00;;;;;;5017071;28;20052;-58
2022/09/05 11:42:10;;;;;;;3.08;2.30;;;29.40;73.10;;;;;;5007594;28;20403;-60
2022/09/05 11:44:51;;;;;;;5.18;2.50;;;29.50;75.60;;;;;;5004957;28;20420;-62
2022/09/05 11:47:42;;;;;;;2.97;2.33;;;29.50;73.20;;;;;;5008477;28;20052;-60
2022/09/05 11:50:25;;;;;;;4.35;2.10;;;29.40;74.20;;;;;;4992718;28;20072;-61
2022/09/05 11:53:00;;;;;;;3.45;2.05;;;29.30;74.20;;;;;;4985363;28;20141;-61
2022/09/05 11:55:36;;;;;;;3.55;2.20;;;29.30;73.70;;;;;;4993712;28;20047;-60
2022/09/05 11:58:11;;;;;;;3.65;2.35;;;29.30;71.50;;;;;;5005036;28;20069;-61
2022/09/05 12:00:46;;;;;;;5.00;2.25;;;29.40;72.40;;;;;;4984866;28;20034;-60
2022/09/05 12:03:44;;;;;;;3.67;2.30;;;29.40;73.00;;;;;;4996753;28;20056;-60
2022/09/05 12:06:48;;;;;;;6.13;2.35;;;29.50;73.00;;;;;;4997034;28;20116;-60
2022/09/05 12:09:27;;;;;;;5.97;2.30;;;29.60;71.40;;;;;;5019206;28;20038;-60
2022/09/05 12:12:08;;;;;;;4.53;2.13;;;29.40;73.00;;;;;;4982802;28;20056;-60
2022/09/05 12:14:34;;;;;;;4.70;2.83;;;29.40;73.30;;;;;;4995273;28;20046;-61
2022/09/05 12:17:21;;;;;;;3.95;2.92;;;29.40;72.50;;;;;;5000710;28;20055;-61
2022/09/05 12:20:17;;;;;;;3.28;2.33;;;29.40;72.30;;;;;;4996665;28;20037;-61
2022/09/05 12:22:52;;;;;;;3.85;1.90;;;29.70;72.40;;;;;;4992048;28;20386;-61
2022/09/05 12:25:27;;;;;;;3.80;2.10;;;29.80;71.80;;;;;;5003650;28;20508;-61
2022/09/05 12:28:06;;;;;;;2.90;2.20;;;29.90;69.70;;;;;;5000028;28;20057;-61
2022/09/05 12:30:41;;;;;;;3.47;2.35;;;30.10;69.60;;;;;;4995097;28;20107;-61
2022/09/05 12:33:12;;;;;;;3.65;2.25;;;30.10;68.90;;;;;;5004715;28;20049;-61
2022/09/05 12:36:02;;;;;;;6.28;2.45;;;30.00;68.00;;;;;;5015566;28;20294;-61
2022/09/05 12:38:54;;;;;;;4.15;2.03;;;30.10;68.10;;;;;;5005435;28;20519;-61
2022/09/05 12:41:21;;;;;;;3.28;2.10;;;30.00;68.40;;;;;;4989098;28;20049;-61
2022/09/05 12:44:00;;;;;;;5.07;2.28;;;30.20;69.70;;;;;;4984154;28;20046;-61
2022/09/05 12:46:52;;;;;;;3.40;2.30;;;30.30;69.60;;;;;;4995398;28;20092;-61
2022/09/05 12:49:48;;;;;;;4.05;2.40;;;30.40;68.80;;;;;;4978025;28;20030;-61
2022/09/05 12:52:32;;;;;;;3.55;2.13;;;30.50;67.90;;;;;;5009855;28;20052;-61
2022/09/05 12:55:09;;;;;;;3.70;2.22;;;30.60;68.70;;;;;;5028645;28;20045;-61
2022/09/05 12:57:40;;;;;;;3.08;2.03;;;30.80;67.20;;;;;;5024990;28;20449;-61
2022/09/05 13:00:20;;;;;;;2.30;2.10;;;31.10;67.60;;;;;;5012463;28;20045;-61
2022/09/05 13:02:56;;;;;;;3.20;2.00;;;31.30;68.00;;;;;;5006005;28;20131;-61
2022/09/05 13:05:28;;;;;;;3.53;2.50;;;31.50;66.40;;;;;;4989206;28;20037;-61
2022/09/05 13:07:57;;;;;;;4.90;2.35;;;31.60;66.90;;;;;;5009852;28;20045;-61
2022/09/05 13:10:32;;;;;;;3.75;1.83;;;31.60;65.50;;;;;;5030218;28;20049;-61
2022/09/05 13:13:05;;;;;;;4.10;2.00;;;31.60;65.40;;;;;;4990195;28;20516;-61
2022/09/05 13:15:37;;;;;;;3.85;2.25;;;31.60;64.40;;;;;;5002095;28;20273;-61
2022/09/05 13:18:02;;;;;;;3.08;1.90;;;31.50;64.50;;;;;;5000082;28;20049;-61
2022/09/05 13:20:33;;;;;;;2.63;1.80;;;31.50;64.00;;;;;;5017628;28;20037;-61
2022/09/05 13:23:22;;;;;;;3.03;1.90;;;31.60;63.10;;;;;;5000330;28;20104;-61
2022/09/05 13:26:16;;;;;;;3.20;1.88;;;31.60;62.40;;;;;;4987318;28;20091;-61
2022/09/05 13:28:58;;;;;;;;;;;31.50;61.70;;;;;;4997548;28;20045;-61
2022/09/05 13:32:00;;;;;;;4.20;2.00;;;31.20;63.10;;;;;;4992301;28;19929;-61
2022/09/05 13:34:39;;;;;;;2.03;1.83;;;31.10;64.00;;;;;;4999148;28;20596;-61
2022/09/05 13:37:20;;;;;;;2.72;2.20;;;31.20;63.90;;;;;;5009332;28;20140;-61
2022/09/05 13:39:49;;;;;;;2.95;1.92;;;31.10;61.40;;;;;;5028128;28;20053;-61
2022/09/05 13:42:19;;;;;;;3.10;1.90;;;31.20;64.00;;;;;;4999142;28;20774;-62
2022/09/05 13:44:47;;;;;;;3.95;2.55;;;31.30;63.10;;;;;;5001999;28;20041;-61
2022/09/05 13:47:32;;;;;;;4.85;2.10;;;31.30;63.60;;;;;;4998483;28;20050;-62
2022/09/05 13:50:04;;;;;;;2.38;1.92;;;31.30;61.60;;;;;;5000906;28;20077;-61
2022/09/05 13:52:37;;;;;;;2.55;1.63;;;31.20;62.40;;;;;;5007613;28;20041;-61
2022/09/05 13:55:07;;;;;;;4.15;2.03;;;31.30;62.40;;;;;;5007438;28;20045;-61
2022/09/05 13:57:52;;;;;;;2.72;1.88;;;31.30;61.30;;;;;;5009029;28;20049;-61
2022/09/05 14:00:42;;;;;;;4.00;1.70;;;31.20;60.20;;;;;;4991449;28;20059;-61
2022/09/05 14:03:54;;;;;;;2.85;1.70;;;31.20;60.30;;;;;;4989091;28;20053;-61
2022/09/05 14:06:46;;;;;;;3.50;1.77;;;31.10;60.80;;;;;;4989605;28;20073;-61
2022/09/05 14:09:50;;;;;;;2.30;1.60;;;31.20;60.30;;;;;;4994545;28;20049;-61